LXN weather

Jim Kelly Field
Lexington, Nebraska, United States

Public forecast

Using degrees Fahrenheit for public forecast. Weather courtesy of forecast.io.

METAR (pilot weather report)

Retrieved 2019/08/19 15:35 UTC (18 minutes ago):

KLXN 191535Z AUTO 13009KT 10SM SCT017 23/21 A3000 RMK AO2 T02340209

TAF (pilot weather forecast)

Closest forecast is Kearney Regional Airport, 35.3 nm (65.3 km) E. Retrieved 2019/08/19 12:30 UTC (3 hours ago):

TAF KEAR 191127Z 1912/2012 12007KT P6SM SCT060 FM191400 14008KT P6SM BKN026 FM191700 15011KT P6SM SCT060 FM200300 11006KT P6SM BKN200 FM201100 21006KT P6SM SCT100